sensor_id;sensor_type;location;lat;lon;timestamp;P1;durP1;ratioP1;P2;durP2;ratioP2
39888;SDS011;25563;50.844;4.308;2023-06-24T00:01:31;4.25;;;3.85;;
39888;SDS011;25563;50.844;4.308;2023-06-24T00:03:58;3.60;;;3.30;;
39888;SDS011;25563;50.844;4.308;2023-06-24T00:06:24;3.28;;;3.08;;
39888;SDS011;25563;50.844;4.308;2023-06-24T00:08:51;3.67;;;3.38;;
39888;SDS011;25563;50.844;4.308;2023-06-24T00:11:17;4.60;;;3.40;;
39888;SDS011;25563;50.844;4.308;2023-06-24T00:13:49;4.43;;;3.40;;
39888;SDS011;25563;50.844;4.308;2023-06-24T00:16:15;6.00;;;3.17;;
39888;SDS011;25563;50.844;4.308;2023-06-24T00:18:41;3.42;;;3.13;;
39888;SDS011;25563;50.844;4.308;2023-06-24T00:21:09;5.38;;;3.15;;
39888;SDS011;25563;50.844;4.308;2023-06-24T00:23:39;4.55;;;3.28;;
39888;SDS011;25563;50.844;4.308;2023-06-24T00:26:06;3.92;;;3.58;;
39888;SDS011;25563;50.844;4.308;2023-06-24T00:28:32;4.53;;;3.25;;
39888;SDS011;25563;50.844;4.308;2023-06-24T00:31:00;3.42;;;3.22;;
39888;SDS011;25563;50.844;4.308;2023-06-24T00:33:29;3.50;;;3.22;;
39888;SDS011;25563;50.844;4.308;2023-06-24T00:35:55;3.42;;;3.00;;
39888;SDS011;25563;50.844;4.308;2023-06-24T00:38:22;6.70;;;3.47;;
39888;SDS011;25563;50.844;4.308;2023-06-24T00:40:56;6.22;;;3.15;;
39888;SDS011;25563;50.844;4.308;2023-06-24T00:43:26;4.43;;;3.42;;
39888;SDS011;25563;50.844;4.308;2023-06-24T00:45:58;5.97;;;3.72;;
39888;SDS011;25563;50.844;4.308;2023-06-24T00:48:24;3.92;;;3.53;;
39888;SDS011;25563;50.844;4.308;2023-06-24T00:50:50;4.82;;;2.92;;
39888;SDS011;25563;50.844;4.308;2023-06-24T00:53:17;4.07;;;3.30;;
39888;SDS011;25563;50.844;4.308;2023-06-24T00:55:49;4.28;;;3.83;;
39888;SDS011;25563;50.844;4.308;2023-06-24T00:58:21;5.95;;;4.20;;
39888;SDS011;25563;50.844;4.308;2023-06-24T01:00:47;3.97;;;3.67;;
39888;SDS011;25563;50.844;4.308;2023-06-24T01:03:22;4.53;;;3.78;;
39888;SDS011;25563;50.844;4.308;2023-06-24T01:05:52;8.10;;;3.72;;
39888;SDS011;25563;50.844;4.308;2023-06-24T01:08:24;4.80;;;3.70;;
39888;SDS011;25563;50.844;4.308;2023-06-24T01:10:51;5.15;;;4.40;;
39888;SDS011;25563;50.844;4.308;2023-06-24T01:13:17;4.40;;;3.90;;
39888;SDS011;25563;50.844;4.308;2023-06-24T01:15:45;9.05;;;4.40;;
39888;SDS011;25563;50.844;4.308;2023-06-24T01:18:22;5.20;;;4.65;;
39888;SDS011;25563;50.844;4.308;2023-06-24T01:20:56;4.60;;;4.20;;
39888;SDS011;25563;50.844;4.308;2023-06-24T01:30:08;5.30;;;4.93;;
39888;SDS011;25563;50.844;4.308;2023-06-24T01:32:45;5.15;;;4.75;;
39888;SDS011;25563;50.844;4.308;2023-06-24T01:35:21;7.65;;;5.05;;
39888;SDS011;25563;50.844;4.308;2023-06-24T01:37:56;5.28;;;4.50;;
39888;SDS011;25563;50.844;4.308;2023-06-24T01:40:33;5.07;;;4.75;;
39888;SDS011;25563;50.844;4.308;2023-06-24T01:43:05;4.88;;;4.47;;
39888;SDS011;25563;50.844;4.308;2023-06-24T01:45:37;6.00;;;5.50;;
39888;SDS011;25563;50.844;4.308;2023-06-24T01:48:14;9.25;;;5.55;;
39888;SDS011;25563;50.844;4.308;2023-06-24T01:51:04;9.75;;;5.05;;
39888;SDS011;25563;50.844;4.308;2023-06-24T01:53:37;16.73;;;6.20;;
39888;SDS011;25563;50.844;4.308;2023-06-24T01:56:14;6.43;;;5.25;;
39888;SDS011;25563;50.844;4.308;2023-06-24T01:58:45;5.50;;;4.95;;
39888;SDS011;25563;50.844;4.308;2023-06-24T02:01:13;5.78;;;5.38;;
39888;SDS011;25563;50.844;4.308;2023-06-24T02:03:43;5.85;;;5.38;;
39888;SDS011;25563;50.844;4.308;2023-06-24T02:06:11;5.85;;;5.43;;
39888;SDS011;25563;50.844;4.308;2023-06-24T02:08:39;10.27;;;5.93;;
39888;SDS011;25563;50.844;4.308;2023-06-24T02:11:07;6.43;;;5.85;;
39888;SDS011;25563;50.844;4.308;2023-06-24T02:13:34;6.55;;;5.93;;
39888;SDS011;25563;50.844;4.308;2023-06-24T02:16:04;6.32;;;5.80;;
39888;SDS011;25563;50.844;4.308;2023-06-24T02:18:37;6.15;;;5.32;;
39888;SDS011;25563;50.844;4.308;2023-06-24T02:21:07;6.00;;;5.50;;
39888;SDS011;25563;50.844;4.308;2023-06-24T02:23:35;5.30;;;4.90;;
39888;SDS011;25563;50.844;4.308;2023-06-24T02:26:07;5.32;;;4.90;;
39888;SDS011;25563;50.844;4.308;2023-06-24T02:28:36;6.82;;;5.18;;
39888;SDS011;25563;50.844;4.308;2023-06-24T02:31:06;11.55;;;5.95;;
39888;SDS011;25563;50.844;4.308;2023-06-24T02:33:42;6.32;;;5.90;;
39888;SDS011;25563;50.844;4.308;2023-06-24T02:38:34;6.30;;;5.63;;
39888;SDS011;25563;50.844;4.308;2023-06-24T02:41:00;6.28;;;5.38;;
39888;SDS011;25563;50.844;4.308;2023-06-24T02:43:32;7.68;;;5.20;;
39888;SDS011;25563;50.844;4.308;2023-06-24T02:46:01;6.55;;;5.55;;
39888;SDS011;25563;50.844;4.308;2023-06-24T02:48:30;6.63;;;5.32;;
39888;SDS011;25563;50.844;4.308;2023-06-24T02:53:27;5.53;;;5.13;;
39888;SDS011;25563;50.844;4.308;2023-06-24T02:56:02;10.40;;;6.28;;
39888;SDS011;25563;50.844;4.308;2023-06-24T02:58:29;6.05;;;5.45;;
39888;SDS011;25563;50.844;4.308;2023-06-24T03:03:29;7.30;;;5.30;;
39888;SDS011;25563;50.844;4.308;2023-06-24T03:05:57;6.15;;;5.75;;
39888;SDS011;25563;50.844;4.308;2023-06-24T03:08:23;5.20;;;4.90;;
39888;SDS011;25563;50.844;4.308;2023-06-24T03:10:52;6.30;;;5.63;;
39888;SDS011;25563;50.844;4.308;2023-06-24T03:13:20;5.93;;;5.40;;
39888;SDS011;25563;50.844;4.308;2023-06-24T03:16:05;5.90;;;5.22;;
39888;SDS011;25563;50.844;4.308;2023-06-24T03:18:54;9.85;;;5.85;;
39888;SDS011;25563;50.844;4.308;2023-06-24T03:21:20;6.03;;;5.15;;
39888;SDS011;25563;50.844;4.308;2023-06-24T03:23:46;8.85;;;5.43;;
39888;SDS011;25563;50.844;4.308;2023-06-24T03:26:19;6.22;;;5.68;;
39888;SDS011;25563;50.844;4.308;2023-06-24T03:28:45;6.82;;;4.93;;
39888;SDS011;25563;50.844;4.308;2023-06-24T03:31:14;6.95;;;5.13;;
39888;SDS011;25563;50.844;4.308;2023-06-24T03:33:44;10.13;;;5.88;;
39888;SDS011;25563;50.844;4.308;2023-06-24T03:36:12;6.40;;;5.80;;
39888;SDS011;25563;50.844;4.308;2023-06-24T03:38:43;7.93;;;6.05;;
39888;SDS011;25563;50.844;4.308;2023-06-24T03:41:16;8.82;;;6.00;;
39888;SDS011;25563;50.844;4.308;2023-06-24T03:43:47;6.13;;;5.72;;
39888;SDS011;25563;50.844;4.308;2023-06-24T03:46:20;6.47;;;5.93;;
39888;SDS011;25563;50.844;4.308;2023-06-24T03:48:47;10.43;;;6.03;;
39888;SDS011;25563;50.844;4.308;2023-06-24T03:51:15;9.32;;;6.05;;
39888;SDS011;25563;50.844;4.308;2023-06-24T03:53:41;6.63;;;6.05;;
39888;SDS011;25563;50.844;4.308;2023-06-24T03:56:08;10.95;;;5.80;;
39888;SDS011;25563;50.844;4.308;2023-06-24T03:58:36;8.55;;;5.72;;
39888;SDS011;25563;50.844;4.308;2023-06-24T04:01:02;7.50;;;6.22;;
39888;SDS011;25563;50.844;4.308;2023-06-24T04:03:28;7.43;;;6.25;;
39888;SDS011;25563;50.844;4.308;2023-06-24T04:05:55;12.23;;;6.65;;
39888;SDS011;25563;50.844;4.308;2023-06-24T04:08:24;9.75;;;5.97;;
39888;SDS011;25563;50.844;4.308;2023-06-24T04:10:54;11.43;;;6.75;;
39888;SDS011;25563;50.844;4.308;2023-06-24T04:13:20;9.38;;;6.38;;
39888;SDS011;25563;50.844;4.308;2023-06-24T04:15:49;11.75;;;6.57;;
39888;SDS011;25563;50.844;4.308;2023-06-24T04:18:18;13.38;;;6.85;;
39888;SDS011;25563;50.844;4.308;2023-06-24T04:20:44;6.82;;;5.85;;
39888;SDS011;25563;50.844;4.308;2023-06-24T04:23:13;13.63;;;6.50;;
39888;SDS011;25563;50.844;4.308;2023-06-24T04:25:43;7.05;;;6.45;;
39888;SDS011;25563;50.844;4.308;2023-06-24T04:28:08;7.85;;;5.90;;
39888;SDS011;25563;50.844;4.308;2023-06-24T04:30:34;10.90;;;6.30;;
39888;SDS011;25563;50.844;4.308;2023-06-24T04:33:00;6.88;;;6.28;;
39888;SDS011;25563;50.844;4.308;2023-06-24T04:35:29;6.55;;;6.05;;
39888;SDS011;25563;50.844;4.308;2023-06-24T04:38:00;10.70;;;6.18;;
39888;SDS011;25563;50.844;4.308;2023-06-24T04:40:26;6.93;;;6.25;;
39888;SDS011;25563;50.844;4.308;2023-06-24T04:42:51;10.02;;;6.57;;
39888;SDS011;25563;50.844;4.308;2023-06-24T04:45:22;7.38;;;6.78;;
39888;SDS011;25563;50.844;4.308;2023-06-24T04:47:51;8.77;;;7.05;;
39888;SDS011;25563;50.844;4.308;2023-06-24T04:50:17;8.18;;;6.95;;
39888;SDS011;25563;50.844;4.308;2023-06-24T04:52:43;9.57;;;6.28;;
39888;SDS011;25563;50.844;4.308;2023-06-24T04:55:09;9.18;;;6.53;;
39888;SDS011;25563;50.844;4.308;2023-06-24T04:57:42;11.82;;;6.32;;
39888;SDS011;25563;50.844;4.308;2023-06-24T05:00:08;6.95;;;6.35;;
39888;SDS011;25563;50.844;4.308;2023-06-24T05:02:34;7.05;;;6.03;;
39888;SDS011;25563;50.844;4.308;2023-06-24T05:05:00;8.13;;;6.47;;
39888;SDS011;25563;50.844;4.308;2023-06-24T05:07:29;6.57;;;6.07;;
39888;SDS011;25563;50.844;4.308;2023-06-24T05:09:55;6.85;;;6.25;;
39888;SDS011;25563;50.844;4.308;2023-06-24T05:12:25;7.82;;;6.22;;
39888;SDS011;25563;50.844;4.308;2023-06-24T05:14:51;7.43;;;6.75;;
39888;SDS011;25563;50.844;4.308;2023-06-24T05:17:18;7.53;;;6.93;;
39888;SDS011;25563;50.844;4.308;2023-06-24T05:19:51;7.53;;;5.97;;
39888;SDS011;25563;50.844;4.308;2023-06-24T05:22:17;8.80;;;5.68;;
39888;SDS011;25563;50.844;4.308;2023-06-24T05:24:43;7.30;;;5.90;;
39888;SDS011;25563;50.844;4.308;2023-06-24T05:27:09;10.40;;;6.60;;
39888;SDS011;25563;50.844;4.308;2023-06-24T05:29:45;6.47;;;5.80;;
39888;SDS011;25563;50.844;4.308;2023-06-24T05:32:14;7.35;;;6.72;;
39888;SDS011;25563;50.844;4.308;2023-06-24T05:34:42;6.05;;;5.55;;
39888;SDS011;25563;50.844;4.308;2023-06-24T05:37:08;5.97;;;5.47;;
39888;SDS011;25563;50.844;4.308;2023-06-24T05:39:36;6.65;;;6.03;;
39888;SDS011;25563;50.844;4.308;2023-06-24T05:42:02;7.50;;;6.40;;
39888;SDS011;25563;50.844;4.308;2023-06-24T05:44:28;7.90;;;6.28;;
39888;SDS011;25563;50.844;4.308;2023-06-24T05:46:56;6.47;;;5.65;;
39888;SDS011;25563;50.844;4.308;2023-06-24T05:49:23;5.80;;;5.30;;
39888;SDS011;25563;50.844;4.308;2023-06-24T05:51:49;5.40;;;4.90;;
39888;SDS011;25563;50.844;4.308;2023-06-24T05:54:18;8.02;;;5.65;;
39888;SDS011;25563;50.844;4.308;2023-06-24T05:56:43;6.68;;;5.85;;
39888;SDS011;25563;50.844;4.308;2023-06-24T05:59:12;6.80;;;5.55;;
39888;SDS011;25563;50.844;4.308;2023-06-24T06:01:39;6.80;;;5.30;;
39888;SDS011;25563;50.844;4.308;2023-06-24T06:04:05;30.85;;;18.92;;
39888;SDS011;25563;50.844;4.308;2023-06-24T06:06:32;6.57;;;5.38;;
39888;SDS011;25563;50.844;4.308;2023-06-24T06:09:05;5.55;;;4.97;;
39888;SDS011;25563;50.844;4.308;2023-06-24T06:11:34;5.47;;;5.07;;
39888;SDS011;25563;50.844;4.308;2023-06-24T06:14:00;5.18;;;4.70;;
39888;SDS011;25563;50.844;4.308;2023-06-24T06:16:26;4.93;;;4.53;;
39888;SDS011;25563;50.844;4.308;2023-06-24T06:18:53;7.38;;;4.50;;
39888;SDS011;25563;50.844;4.308;2023-06-24T06:21:19;4.72;;;4.32;;
39888;SDS011;25563;50.844;4.308;2023-06-24T06:23:46;6.25;;;4.93;;
39888;SDS011;25563;50.844;4.308;2023-06-24T06:26:12;5.22;;;4.60;;
39888;SDS011;25563;50.844;4.308;2023-06-24T06:28:38;7.32;;;5.13;;
39888;SDS011;25563;50.844;4.308;2023-06-24T06:31:07;5.57;;;5.18;;
39888;SDS011;25563;50.844;4.308;2023-06-24T06:33:34;4.80;;;4.50;;
39888;SDS011;25563;50.844;4.308;2023-06-24T06:36:00;4.53;;;4.13;;
39888;SDS011;25563;50.844;4.308;2023-06-24T06:38:26;4.35;;;3.95;;
39888;SDS011;25563;50.844;4.308;2023-06-24T06:40:52;5.10;;;4.70;;
39888;SDS011;25563;50.844;4.308;2023-06-24T06:43:23;9.65;;;4.57;;
39888;SDS011;25563;50.844;4.308;2023-06-24T06:46:00;5.90;;;4.32;;
39888;SDS011;25563;50.844;4.308;2023-06-24T06:48:33;6.85;;;4.72;;
39888;SDS011;25563;50.844;4.308;2023-06-24T06:50:58;9.63;;;4.38;;
39888;SDS011;25563;50.844;4.308;2023-06-24T06:53:24;5.43;;;4.18;;
39888;SDS011;25563;50.844;4.308;2023-06-24T06:55:50;5.10;;;4.70;;
39888;SDS011;25563;50.844;4.308;2023-06-24T07:00:45;7.55;;;4.10;;
39888;SDS011;25563;50.844;4.308;2023-06-24T07:03:15;4.43;;;4.03;;
39888;SDS011;25563;50.844;4.308;2023-06-24T07:05:41;3.95;;;3.65;;
39888;SDS011;25563;50.844;4.308;2023-06-24T07:08:22;4.07;;;3.83;;
39888;SDS011;25563;50.844;4.308;2023-06-24T07:10:48;3.92;;;3.63;;
39888;SDS011;25563;50.844;4.308;2023-06-24T07:13:14;5.45;;;3.58;;
39888;SDS011;25563;50.844;4.308;2023-06-24T07:15:40;5.28;;;4.80;;
39888;SDS011;25563;50.844;4.308;2023-06-24T07:18:06;3.42;;;3.08;;
39888;SDS011;25563;50.844;4.308;2023-06-24T07:20:33;4.55;;;3.65;;
39888;SDS011;25563;50.844;4.308;2023-06-24T07:22:59;4.05;;;3.65;;
39888;SDS011;25563;50.844;4.308;2023-06-24T07:25:26;4.00;;;3.50;;
39888;SDS011;25563;50.844;4.308;2023-06-24T07:27:53;3.88;;;3.55;;
39888;SDS011;25563;50.844;4.308;2023-06-24T07:30:19;3.33;;;3.00;;
39888;SDS011;25563;50.844;4.308;2023-06-24T07:32:46;3.88;;;3.50;;
39888;SDS011;25563;50.844;4.308;2023-06-24T07:35:13;4.20;;;3.67;;
39888;SDS011;25563;50.844;4.308;2023-06-24T07:37:40;3.10;;;2.80;;
39888;SDS011;25563;50.844;4.308;2023-06-24T07:40:06;4.25;;;3.22;;
39888;SDS011;25563;50.844;4.308;2023-06-24T07:42:33;2.75;;;2.55;;
39888;SDS011;25563;50.844;4.308;2023-06-24T07:45:06;2.97;;;2.78;;
39888;SDS011;25563;50.844;4.308;2023-06-24T07:47:33;3.00;;;2.55;;
39888;SDS011;25563;50.844;4.308;2023-06-24T07:50:04;2.85;;;2.65;;
39888;SDS011;25563;50.844;4.308;2023-06-24T07:52:44;3.08;;;2.78;;
39888;SDS011;25563;50.844;4.308;2023-06-24T07:55:14;3.27;;;2.70;;
39888;SDS011;25563;50.844;4.308;2023-06-24T07:57:39;3.00;;;2.65;;
39888;SDS011;25563;50.844;4.308;2023-06-24T08:00:10;4.43;;;2.38;;
39888;SDS011;25563;50.844;4.308;2023-06-24T08:02:37;3.25;;;2.45;;
39888;SDS011;25563;50.844;4.308;2023-06-24T08:05:04;3.40;;;3.20;;
39888;SDS011;25563;50.844;4.308;2023-06-24T08:07:33;2.90;;;2.55;;
39888;SDS011;25563;50.844;4.308;2023-06-24T08:09:59;3.58;;;2.90;;
39888;SDS011;25563;50.844;4.308;2023-06-24T08:12:25;4.20;;;3.17;;
39888;SDS011;25563;50.844;4.308;2023-06-24T08:14:52;3.08;;;2.63;;
39888;SDS011;25563;50.844;4.308;2023-06-24T08:17:18;3.40;;;2.42;;
39888;SDS011;25563;50.844;4.308;2023-06-24T08:19:44;2.15;;;1.98;;
39888;SDS011;25563;50.844;4.308;2023-06-24T08:22:10;2.63;;;2.42;;
39888;SDS011;25563;50.844;4.308;2023-06-24T08:24:40;4.05;;;2.10;;
39888;SDS011;25563;50.844;4.308;2023-06-24T08:27:07;3.70;;;2.10;;
39888;SDS011;25563;50.844;4.308;2023-06-24T08:43:39;3.45;;;1.65;;
39888;SDS011;25563;50.844;4.308;2023-06-24T08:46:08;3.50;;;1.90;;
39888;SDS011;25563;50.844;4.308;2023-06-24T08:48:41;1.80;;;1.65;;
39888;SDS011;25563;50.844;4.308;2023-06-24T08:51:10;2.20;;;2.00;;
39888;SDS011;25563;50.844;4.308;2023-06-24T08:53:41;3.35;;;1.52;;
39888;SDS011;25563;50.844;4.308;2023-06-24T08:56:08;2.17;;;1.65;;
39888;SDS011;25563;50.844;4.308;2023-06-24T08:58:35;2.45;;;1.70;;
39888;SDS011;25563;50.844;4.308;2023-06-24T09:01:02;2.13;;;1.85;;
39888;SDS011;25563;50.844;4.308;2023-06-24T09:03:29;2.58;;;1.60;;
39888;SDS011;25563;50.844;4.308;2023-06-24T09:05:54;4.03;;;1.55;;
39888;SDS011;25563;50.844;4.308;2023-06-24T09:08:21;2.10;;;1.75;;
39888;SDS011;25563;50.844;4.308;2023-06-24T09:10:53;5.65;;;1.77;;
39888;SDS011;25563;50.844;4.308;2023-06-24T09:17:02;3.00;;;2.22;;
39888;SDS011;25563;50.844;4.308;2023-06-24T09:19:30;1.95;;;1.75;;
39888;SDS011;25563;50.844;4.308;2023-06-24T09:22:05;3.45;;;1.33;;
39888;SDS011;25563;50.844;4.308;2023-06-24T09:24:33;4.80;;;1.65;;
39888;SDS011;25563;50.844;4.308;2023-06-24T09:27:00;1.90;;;1.60;;
39888;SDS011;25563;50.844;4.308;2023-06-24T09:29:35;2.95;;;1.67;;
39888;SDS011;25563;50.844;4.308;2023-06-24T09:32:04;4.65;;;2.45;;
39888;SDS011;25563;50.844;4.308;2023-06-24T09:34:31;1.73;;;1.63;;
39888;SDS011;25563;50.844;4.308;2023-06-24T09:36:58;1.85;;;1.75;;
39888;SDS011;25563;50.844;4.308;2023-06-24T09:39:25;2.97;;;1.50;;
39888;SDS011;25563;50.844;4.308;2023-06-24T09:42:01;1.83;;;1.65;;
39888;SDS011;25563;50.844;4.308;2023-06-24T09:44:30;1.98;;;1.60;;
39888;SDS011;25563;50.844;4.308;2023-06-24T09:57:03;1.33;;;1.23;;
39888;SDS011;25563;50.844;4.308;2023-06-24T09:59:30;1.45;;;1.30;;
39888;SDS011;25563;50.844;4.308;2023-06-24T10:02:00;2.08;;;1.52;;
39888;SDS011;25563;50.844;4.308;2023-06-24T10:04:28;2.90;;;1.40;;
39888;SDS011;25563;50.844;4.308;2023-06-24T10:06:56;2.17;;;1.45;;
39888;SDS011;25563;50.844;4.308;2023-06-24T10:09:23;1.95;;;1.60;;
39888;SDS011;25563;50.844;4.308;2023-06-24T10:11:48;2.50;;;1.73;;
39888;SDS011;25563;50.844;4.308;2023-06-24T10:14:14;3.40;;;1.42;;
39888;SDS011;25563;50.844;4.308;2023-06-24T10:16:44;1.20;;;1.10;;
39888;SDS011;25563;50.844;4.308;2023-06-24T10:19:13;2.00;;;1.65;;
39888;SDS011;25563;50.844;4.308;2023-06-24T10:21:45;3.75;;;1.60;;
39888;SDS011;25563;50.844;4.308;2023-06-24T10:24:13;4.10;;;1.27;;
39888;SDS011;25563;50.844;4.308;2023-06-24T10:33:37;2.15;;;1.90;;
39888;SDS011;25563;50.844;4.308;2023-06-24T10:50:21;3.38;;;1.88;;
39888;SDS011;25563;50.844;4.308;2023-06-24T10:52:49;1.60;;;1.50;;
39888;SDS011;25563;50.844;4.308;2023-06-24T10:55:23;1.42;;;1.33;;
39888;SDS011;25563;50.844;4.308;2023-06-24T10:57:54;1.48;;;1.15;;
39888;SDS011;25563;50.844;4.308;2023-06-24T11:00:34;1.70;;;1.27;;
39888;SDS011;25563;50.844;4.308;2023-06-24T11:03:15;4.03;;;1.63;;
39888;SDS011;25563;50.844;4.308;2023-06-24T11:05:44;2.50;;;1.55;;
39888;SDS011;25563;50.844;4.308;2023-06-24T11:08:11;6.38;;;1.48;;
39888;SDS011;25563;50.844;4.308;2023-06-24T11:10:47;2.08;;;1.55;;
39888;SDS011;25563;50.844;4.308;2023-06-24T11:13:15;2.80;;;1.23;;
39888;SDS011;25563;50.844;4.308;2023-06-24T11:15:46;1.70;;;1.00;;
39888;SDS011;25563;50.844;4.308;2023-06-24T11:18:12;1.23;;;1.10;;
39888;SDS011;25563;50.844;4.308;2023-06-24T11:27:43;2.95;;;1.17;;
39888;SDS011;25563;50.844;4.308;2023-06-24T11:30:11;1.55;;;1.45;;
39888;SDS011;25563;50.844;4.308;2023-06-24T11:32:38;2.30;;;1.15;;
39888;SDS011;25563;50.844;4.308;2023-06-24T11:35:07;2.60;;;1.33;;
39888;SDS011;25563;50.844;4.308;2023-06-24T11:37:34;2.03;;;1.48;;
39888;SDS011;25563;50.844;4.308;2023-06-24T11:40:04;1.55;;;1.30;;
39888;SDS011;25563;50.844;4.308;2023-06-24T11:42:31;1.67;;;1.33;;
39888;SDS011;25563;50.844;4.308;2023-06-24T11:45:02;1.90;;;1.30;;
39888;SDS011;25563;50.844;4.308;2023-06-24T11:47:35;1.67;;;1.50;;
39888;SDS011;25563;50.844;4.308;2023-06-24T11:50:03;1.52;;;1.42;;
39888;SDS011;25563;50.844;4.308;2023-06-24T11:55:11;2.97;;;1.52;;
39888;SDS011;25563;50.844;4.308;2023-06-24T11:57:50;2.08;;;1.52;;
39888;SDS011;25563;50.844;4.308;2023-06-24T12:02:58;1.40;;;1.27;;
39888;SDS011;25563;50.844;4.308;2023-06-24T12:08:12;1.38;;;1.20;;
39888;SDS011;25563;50.844;4.308;2023-06-24T12:10:42;1.27;;;1.10;;
39888;SDS011;25563;50.844;4.308;2023-06-24T12:13:12;1.90;;;1.20;;
39888;SDS011;25563;50.844;4.308;2023-06-24T12:15:38;1.77;;;1.35;;
39888;SDS011;25563;50.844;4.308;2023-06-24T12:18:05;2.20;;;1.15;;
39888;SDS011;25563;50.844;4.308;2023-06-24T12:20:31;0.98;;;0.98;;
39888;SDS011;25563;50.844;4.308;2023-06-24T12:22:58;1.20;;;1.10;;
39888;SDS011;25563;50.844;4.308;2023-06-24T12:25:24;1.02;;;0.93;;
39888;SDS011;25563;50.844;4.308;2023-06-24T12:27:52;2.65;;;1.30;;
39888;SDS011;25563;50.844;4.308;2023-06-24T12:30:18;1.85;;;1.23;;
39888;SDS011;25563;50.844;4.308;2023-06-24T12:33:00;3.63;;;1.27;;
39888;SDS011;25563;50.844;4.308;2023-06-24T12:36:10;1.45;;;1.00;;
39888;SDS011;25563;50.844;4.308;2023-06-24T12:38:38;1.63;;;1.00;;
39888;SDS011;25563;50.844;4.308;2023-06-24T12:41:04;1.48;;;1.33;;
39888;SDS011;25563;50.844;4.308;2023-06-24T12:43:30;5.28;;;1.13;;
39888;SDS011;25563;50.844;4.308;2023-06-24T12:45:58;2.10;;;1.00;;
39888;SDS011;25563;50.844;4.308;2023-06-24T12:48:26;1.30;;;1.10;;
39888;SDS011;25563;50.844;4.308;2023-06-24T12:50:51;1.67;;;1.05;;
39888;SDS011;25563;50.844;4.308;2023-06-24T12:53:20;1.42;;;0.95;;
39888;SDS011;25563;50.844;4.308;2023-06-24T12:55:47;1.10;;;0.90;;
39888;SDS011;25563;50.844;4.308;2023-06-24T12:58:16;1.65;;;1.27;;
39888;SDS011;25563;50.844;4.308;2023-06-24T13:00:44;1.55;;;1.20;;
39888;SDS011;25563;50.844;4.308;2023-06-24T13:03:11;3.33;;;1.27;;
39888;SDS011;25563;50.844;4.308;2023-06-24T13:05:36;1.15;;;1.05;;
39888;SDS011;25563;50.844;4.308;2023-06-24T13:08:08;1.10;;;1.00;;
39888;SDS011;25563;50.844;4.308;2023-06-24T13:10:36;1.42;;;1.10;;
39888;SDS011;25563;50.844;4.308;2023-06-24T13:13:10;1.95;;;1.10;;
39888;SDS011;25563;50.844;4.308;2023-06-24T13:15:37;2.90;;;1.35;;
39888;SDS011;25563;50.844;4.308;2023-06-24T13:18:03;1.30;;;1.05;;
39888;SDS011;25563;50.844;4.308;2023-06-24T13:20:29;1.27;;;1.08;;
39888;SDS011;25563;50.844;4.308;2023-06-24T13:22:55;1.30;;;1.20;;
39888;SDS011;25563;50.844;4.308;2023-06-24T13:25:23;1.30;;;1.20;;
39888;SDS011;25563;50.844;4.308;2023-06-24T13:27:48;1.45;;;1.20;;
39888;SDS011;25563;50.844;4.308;2023-06-24T13:30:14;1.98;;;0.93;;
39888;SDS011;25563;50.844;4.308;2023-06-24T13:32:43;1.13;;;1.02;;
39888;SDS011;25563;50.844;4.308;2023-06-24T13:35:09;1.40;;;1.30;;
39888;SDS011;25563;50.844;4.308;2023-06-24T13:37:35;1.20;;;1.10;;
39888;SDS011;25563;50.844;4.308;2023-06-24T13:40:03;1.80;;;1.38;;
39888;SDS011;25563;50.844;4.308;2023-06-24T13:42:39;1.30;;;1.02;;
39888;SDS011;25563;50.844;4.308;2023-06-24T13:45:08;1.38;;;1.20;;
39888;SDS011;25563;50.844;4.308;2023-06-24T13:47:36;1.00;;;0.90;;
39888;SDS011;25563;50.844;4.308;2023-06-24T13:50:03;2.80;;;0.90;;
39888;SDS011;25563;50.844;4.308;2023-06-24T13:52:31;2.70;;;1.00;;
39888;SDS011;25563;50.844;4.308;2023-06-24T13:54:58;4.13;;;0.85;;
39888;SDS011;25563;50.844;4.308;2023-06-24T13:57:27;1.15;;;0.90;;
39888;SDS011;25563;50.844;4.308;2023-06-24T13:59:54;1.00;;;0.90;;
39888;SDS011;25563;50.844;4.308;2023-06-24T14:02:21;1.17;;;0.90;;
39888;SDS011;25563;50.844;4.308;2023-06-24T14:04:46;0.90;;;0.90;;
39888;SDS011;25563;50.844;4.308;2023-06-24T14:07:13;2.03;;;1.25;;
39888;SDS011;25563;50.844;4.308;2023-06-24T14:09:39;3.88;;;1.08;;
39888;SDS011;25563;50.844;4.308;2023-06-24T14:12:05;1.60;;;0.93;;
39888;SDS011;25563;50.844;4.308;2023-06-24T14:14:33;1.77;;;1.05;;
39888;SDS011;25563;50.844;4.308;2023-06-24T14:17:00;1.52;;;1.33;;
39888;SDS011;25563;50.844;4.308;2023-06-24T14:19:26;1.10;;;1.00;;
39888;SDS011;25563;50.844;4.308;2023-06-24T14:21:53;1.88;;;1.10;;
39888;SDS011;25563;50.844;4.308;2023-06-24T14:24:18;1.40;;;1.27;;
39888;SDS011;25563;50.844;4.308;2023-06-24T14:26:44;1.30;;;1.05;;
39888;SDS011;25563;50.844;4.308;2023-06-24T14:29:14;1.35;;;1.15;;
39888;SDS011;25563;50.844;4.308;2023-06-24T14:31:40;1.10;;;1.00;;
39888;SDS011;25563;50.844;4.308;2023-06-24T14:34:06;1.67;;;1.30;;
39888;SDS011;25563;50.844;4.308;2023-06-24T14:36:31;2.95;;;1.05;;
39888;SDS011;25563;50.844;4.308;2023-06-24T14:38:57;2.53;;;1.13;;
39888;SDS011;25563;50.844;4.308;2023-06-24T14:41:24;1.00;;;1.00;;
39888;SDS011;25563;50.844;4.308;2023-06-24T14:46:17;1.20;;;1.10;;
39888;SDS011;25563;50.844;4.308;2023-06-24T14:48:42;1.38;;;1.25;;
39888;SDS011;25563;50.844;4.308;2023-06-24T14:51:08;1.27;;;1.17;;
39888;SDS011;25563;50.844;4.308;2023-06-24T14:53:34;0.82;;;0.82;;
39888;SDS011;25563;50.844;4.308;2023-06-24T14:56:00;1.02;;;1.00;;
39888;SDS011;25563;50.844;4.308;2023-06-24T14:58:25;1.10;;;1.00;;
39888;SDS011;25563;50.844;4.308;2023-06-24T15:00:51;0.98;;;0.98;;
39888;SDS011;25563;50.844;4.308;2023-06-24T15:03:17;1.55;;;1.40;;
39888;SDS011;25563;50.844;4.308;2023-06-24T15:05:43;1.17;;;0.93;;
39888;SDS011;25563;50.844;4.308;2023-06-24T15:08:10;4.50;;;1.13;;
39888;SDS011;25563;50.844;4.308;2023-06-24T15:10:35;2.03;;;1.92;;
39888;SDS011;25563;50.844;4.308;2023-06-24T15:13:01;2.25;;;1.42;;
39888;SDS011;25563;50.844;4.308;2023-06-24T15:15:27;1.42;;;1.05;;
39888;SDS011;25563;50.844;4.308;2023-06-24T15:17:53;3.15;;;1.55;;
39888;SDS011;25563;50.844;4.308;2023-06-24T15:20:18;2.22;;;1.00;;
39888;SDS011;25563;50.844;4.308;2023-06-24T15:22:45;1.05;;;1.05;;
39888;SDS011;25563;50.844;4.308;2023-06-24T15:25:11;1.05;;;0.98;;
39888;SDS011;25563;50.844;4.308;2023-06-24T15:27:37;1.25;;;1.02;;
39888;SDS011;25563;50.844;4.308;2023-06-24T15:30:02;1.70;;;1.60;;
39888;SDS011;25563;50.844;4.308;2023-06-24T15:32:29;2.03;;;1.27;;
39888;SDS011;25563;50.844;4.308;2023-06-24T15:34:54;3.03;;;1.20;;
39888;SDS011;25563;50.844;4.308;2023-06-24T15:37:20;3.28;;;1.20;;
39888;SDS011;25563;50.844;4.308;2023-06-24T15:39:46;2.58;;;1.05;;
39888;SDS011;25563;50.844;4.308;2023-06-24T15:42:11;0.90;;;0.90;;
39888;SDS011;25563;50.844;4.308;2023-06-24T15:44:37;2.50;;;0.80;;
39888;SDS011;25563;50.844;4.308;2023-06-24T15:47:04;1.85;;;0.98;;
39888;SDS011;25563;50.844;4.308;2023-06-24T15:49:30;1.63;;;0.80;;
39888;SDS011;25563;50.844;4.308;2023-06-24T15:51:56;2.17;;;1.10;;
39888;SDS011;25563;50.844;4.308;2023-06-24T15:54:22;1.40;;;1.30;;
39888;SDS011;25563;50.844;4.308;2023-06-24T15:56:48;1.88;;;1.30;;
39888;SDS011;25563;50.844;4.308;2023-06-24T15:59:14;2.95;;;1.10;;
39888;SDS011;25563;50.844;4.308;2023-06-24T16:01:40;2.05;;;1.45;;
39888;SDS011;25563;50.844;4.308;2023-06-24T16:04:06;1.08;;;0.90;;
39888;SDS011;25563;50.844;4.308;2023-06-24T16:06:34;4.65;;;1.10;;
39888;SDS011;25563;50.844;4.308;2023-06-24T16:09:00;1.67;;;0.90;;
39888;SDS011;25563;50.844;4.308;2023-06-24T16:11:26;3.28;;;1.10;;
39888;SDS011;25563;50.844;4.308;2023-06-24T16:13:52;1.00;;;0.90;;
39888;SDS011;25563;50.844;4.308;2023-06-24T16:16:17;1.10;;;1.00;;
39888;SDS011;25563;50.844;4.308;2023-06-24T16:18:43;2.63;;;0.95;;